Terminal Aerodrome Forecast
Issued by NWS Sioux Falls, SD

Home | Current Version | Previous Version | Text Only | Print | Product List | Glossary On
Versions: 1 2 3 4 5 6 7 8 9 10 11 12 13 14 15 16
335
FTUS43 KFSD 161722
TAFHON
TAF
KHON 161722Z 1618/1718 33005KT 3SM -SHRA VCTS SCT007 OVC010CB
     FM162300 33012KT 6SM -SHRA VCTS OVC020CB
     FM170100 33011KT P6SM VCSH OVC030
     FM170800 31010KT P6SM SCT030
     FM171600 32010KT P6SM FEW140=

USA.gov is the U.S. government's official web portal to all federal, state and local government web resources and services.